Time;durP1;ratioP1;P1;durP2;ratioP2;P2;SDS_P1;SDS_P2;PMS_P1;PMS_P2;Temp;Humidity;BMP_temperature;BMP_pressure;BME280_temperature;BME280_humidity;BME280_pressure;Samples;Min_cycle;Max_cycle;Signal;HPM_P1;HPM_P2
2023/04/23 00:04:51;;;;;;;21.00;13.70;;;;;;;8.46;63.78;98396.65;225173;1280;22530;-78
2023/04/23 00:09:56;;;;;;;20.50;13.40;;;;;;;8.40;63.20;98395.68;225399;1278;22571;-79
2023/04/23 00:14:59;;;;;;;20.40;13.40;;;;;;;8.36;63.66;98399.27;225327;1278;22531;-78
2023/04/23 00:20:01;;;;;;;18.10;13.60;;;;;;;8.34;63.92;98397.25;225407;1279;25432;-78
2023/04/23 00:25:04;;;;;;;20.80;14.70;;;;;;;8.33;64.20;98395.10;225383;1260;22527;-79
2023/04/23 00:30:07;;;;;;;21.30;15.30;;;;;;;8.30;64.05;98398.41;225241;1279;22527;-79
2023/04/23 00:35:09;;;;;;;21.90;15.90;;;;;;;8.25;64.30;98392.54;225162;1280;22574;-79
2023/04/23 00:40:12;;;;;;;24.70;16.20;;;;;;;8.19;64.52;98389.70;225355;1280;22545;-79
2023/04/23 00:45:15;;;;;;;24.70;17.50;;;;;;;8.14;64.95;98381.86;225202;1279;22524;-77
2023/04/23 00:50:19;;;;;;;22.90;17.50;;;;;;;8.09;65.14;98381.00;225076;1280;22527;-78
2023/04/23 00:55:21;;;;;;;26.50;18.90;;;;;;;8.04;65.02;98380.44;225257;1280;25414;-77
2023/04/23 01:00:24;;;;;;;27.60;20.30;;;;;;;7.98;65.33;98382.73;225335;1280;22572;-78
2023/04/23 01:05:26;;;;;;;28.60;19.50;;;;;;;7.93;65.33;98384.25;225357;1278;22524;-78
2023/04/23 01:10:31;;;;;;;26.30;19.20;;;;;;;7.86;65.61;98392.44;225375;1278;22539;-77
2023/04/23 01:15:33;;;;;;;28.70;19.40;;;;;;;7.77;66.04;98393.27;225373;1278;22527;-78
2023/04/23 01:20:36;;;;;;;26.10;19.30;;;;;;;7.70;66.10;98392.05;225173;1280;22527;-78
2023/04/23 01:25:39;;;;;;;26.20;19.60;;;;;;;7.64;65.97;98389.23;225391;1278;25369;-77
2023/04/23 01:30:43;;;;;;;23.90;18.10;;;;;;;7.60;66.46;98390.23;225387;1278;22563;-78
2023/04/23 01:35:46;;;;;;;26.60;18.00;;;;;;;7.55;66.54;98386.81;225248;1280;22537;-78
2023/04/23 01:40:48;;;;;;;25.60;18.20;;;;;;;7.52;66.73;98387.73;225305;1280;22542;-78
2023/04/23 01:45:51;;;;;;;25.90;17.90;;;;;;;7.51;66.88;98384.31;225393;1275;22528;-77
2023/04/23 01:50:54;;;;;;;22.80;16.90;;;;;;;7.50;66.93;98387.34;225475;1278;22555;-78
2023/04/23 01:55:59;;;;;;;23.40;17.80;;;;;;;7.51;67.29;98383.59;225405;1280;22543;-78
2023/04/23 02:01:01;;;;;;;25.20;17.20;;;;;;;7.51;67.43;98383.41;225146;1280;22682;-77
2023/04/23 02:06:04;;;;;;;24.60;17.60;;;;;;;7.49;67.59;98382.58;225198;1280;22834;-78
2023/04/23 02:11:06;;;;;;;27.20;18.10;;;;;;;7.46;67.54;98381.02;225374;1280;22527;-77
2023/04/23 02:16:08;;;;;;;26.40;18.30;;;;;;;7.41;67.81;98375.78;225187;1279;22527;-77
2023/04/23 02:21:11;;;;;;;25.10;18.30;;;;;;;7.36;68.07;98369.35;225246;1278;22593;-79
2023/04/23 02:26:14;;;;;;;25.30;18.80;;;;;;;7.31;67.98;98370.80;225318;1280;22535;-78
2023/04/23 02:31:17;;;;;;;26.90;18.60;;;;;;;7.24;68.24;98367.59;225405;1278;22548;-78
2023/04/23 02:36:19;;;;;;;25.30;18.00;;;;;;;7.18;68.33;98366.41;225239;1276;22542;-78
2023/04/23 02:41:21;;;;;;;26.00;17.60;;;;;;;7.11;68.68;98361.98;225230;1280;22543;-77
2023/04/23 02:46:23;;;;;;;26.50;17.40;;;;;;;7.02;69.00;98354.52;225255;1280;24260;-77
2023/04/23 02:51:26;;;;;;;27.20;17.80;;;;;;;6.92;69.10;98361.69;225033;1280;22550;-77
2023/04/23 02:56:28;;;;;;;27.20;17.50;;;;;;;6.81;69.58;98362.22;225122;1280;22532;-78
2023/04/23 03:01:31;;;;;;;25.30;18.60;;;;;;;6.70;69.68;98358.38;225079;1277;23052;-78
2023/04/23 03:06:34;;;;;;;27.40;19.20;;;;;;;6.61;70.13;98354.31;225370;1279;22561;-78
2023/04/23 03:11:37;;;;;;;28.00;19.00;;;;;;;6.55;70.13;98358.38;225263;1278;22531;-78
2023/04/23 03:16:39;;;;;;;29.10;19.20;;;;;;;6.48;70.37;98355.34;225102;1281;22533;-79
2023/04/23 03:21:42;;;;;;;29.10;20.40;;;;;;;6.43;70.40;98354.02;225387;1280;22554;-77
2023/04/23 03:26:44;;;;;;;30.10;20.40;;;;;;;6.37;70.33;98354.31;225403;1280;25247;-77
2023/04/23 03:31:46;;;;;;;28.10;20.90;;;;;;;6.32;70.62;98351.55;225362;1280;22543;-78
2023/04/23 03:36:49;;;;;;;27.00;19.90;;;;;;;6.27;71.42;98357.00;225259;1280;22603;-78
2023/04/23 03:41:52;;;;;;;28.20;20.70;;;;;;;6.23;71.27;98358.95;225180;1273;22534;-77
2023/04/23 03:46:57;;;;;;;24.90;19.00;;;;;;;6.20;71.41;98359.73;225207;1279;22544;-78
2023/04/23 03:52:00;;;;;;;28.10;19.80;;;;;;;6.18;71.68;98358.73;225206;1280;22644;-78
2023/04/23 03:57:03;;;;;;;25.30;18.90;;;;;;;6.17;71.64;98358.15;225351;1277;25448;-77
2023/04/23 04:02:10;;;;;;;27.00;18.60;;;;;;;6.16;71.98;98359.81;225216;1280;22580;-77
2023/04/23 04:07:13;;;;;;;27.30;19.10;;;;;;;6.17;71.74;98366.90;225218;1281;22531;-77
2023/04/23 04:12:15;;;;;;;27.10;19.00;;;;;;;6.20;71.83;98368.13;225305;1280;24313;-78
2023/04/23 04:17:17;;;;;;;25.30;18.30;;;;;;;6.24;72.08;98369.70;225330;1279;25340;-77
2023/04/23 04:22:19;;;;;;;26.20;18.10;;;;;;;6.31;72.35;98366.86;225233;1281;22555;-79
2023/04/23 04:27:21;;;;;;;25.80;18.10;;;;;;;6.38;72.18;98366.37;225322;1268;22535;-78
2023/04/23 04:32:23;;;;;;;26.30;18.60;;;;;;;6.49;72.26;98365.73;225186;1279;22541;-78
2023/04/23 04:37:25;;;;;;;26.10;18.30;;;;;;;6.60;72.30;98369.47;225113;1281;23801;-78
2023/04/23 04:42:27;;;;;;;24.50;17.40;;;;;;;6.74;72.52;98368.98;225211;1280;24332;-78
2023/04/23 04:47:30;;;;;;;25.30;18.40;;;;;;;6.90;72.46;98376.23;225227;1275;22919;-78
2023/04/23 04:52:32;;;;;;;27.80;18.60;;;;;;;7.07;72.47;98371.52;225321;1280;22561;-78
2023/04/23 04:57:35;;;;;;;25.50;18.50;;;;;;;7.26;72.55;98366.39;225144;1279;22566;-78
2023/04/23 05:02:37;;;;;;;25.50;17.80;;;;;;;7.44;72.17;98368.92;225306;1277;22528;-78
2023/04/23 05:07:39;;;;;;;25.40;18.70;;;;;;;7.64;71.99;98370.04;225367;1274;22547;-78
2023/04/23 05:12:42;;;;;;;26.20;19.40;;;;;;;7.85;72.34;98369.24;225189;1280;22546;-78
2023/04/23 05:17:44;;;;;;;27.10;19.00;;;;;;;8.05;71.87;98366.82;225339;1280;22534;-77
2023/04/23 05:22:46;;;;;;;26.50;19.10;;;;;;;8.27;71.70;98364.55;225315;1280;22538;-76
2023/04/23 05:27:50;;;;;;;25.50;18.50;;;;;;;8.51;72.62;98364.30;225380;1276;22610;-78
2023/04/23 05:32:52;;;;;;;25.80;19.10;;;;;;;8.75;72.94;98365.34;225161;1280;22586;-77
2023/04/23 05:37:54;;;;;;;27.20;19.80;;;;;;;9.00;73.38;98367.50;225116;1280;22538;-77
2023/04/23 05:42:57;;;;;;;25.90;19.60;;;;;;;9.25;73.36;98366.02;225156;1280;22531;-78
2023/04/23 05:47:59;;;;;;;24.80;19.30;;;;;;;9.56;73.49;98369.28;225301;1279;22543;-78
2023/04/23 05:53:01;;;;;;;23.90;19.30;;;;;;;9.81;73.35;98371.70;225321;1280;23004;-78
2023/04/23 05:58:04;;;;;;;22.40;17.00;;;;;;;10.11;73.73;98363.88;225115;1281;22584;-78
2023/04/23 06:03:06;;;;;;;19.90;15.00;;;;;;;10.48;73.18;98364.85;225358;1273;22537;-79
2023/04/23 06:08:09;;;;;;;15.90;10.80;;;;;;;10.80;72.40;98367.72;225367;1280;22524;-78
2023/04/23 06:13:11;;;;;;;13.60;9.70;;;;;;;11.20;71.30;98369.49;225299;1280;22531;-78
2023/04/23 06:18:13;;;;;;;12.50;9.60;;;;;;;11.59;70.23;98360.39;225152;1280;22990;-79
2023/04/23 06:23:16;;;;;;;13.40;9.80;;;;;;;11.95;69.30;98361.43;225138;1280;22664;-79
2023/04/23 06:28:18;;;;;;;13.50;9.40;;;;;;;12.30;68.72;98362.52;225341;1273;25245;-79
2023/04/23 06:33:49;;;;;;;13.70;9.90;;;;;;;12.64;67.92;98363.84;224953;1280;22537;-78
2023/04/23 06:38:51;;;;;;;12.20;9.40;;;;;;;12.94;67.31;98359.33;225334;1280;22542;-78
2023/04/23 06:43:54;;;;;;;15.10;9.50;;;;;;;13.24;66.79;98355.64;225202;1279;23806;-78
2023/04/23 06:49:05;;;;;;;12.20;9.20;;;;;;;13.54;65.98;98353.38;225317;1274;22568;-78
2023/04/23 06:54:07;;;;;;;13.20;9.70;;;;;;;13.79;65.53;98352.77;225115;1280;24267;-77
2023/04/23 06:59:09;;;;;;;12.10;9.30;;;;;;;14.03;65.32;98344.11;225111;1277;22527;-78
2023/04/23 07:04:20;;;;;;;14.00;9.20;;;;;;;14.27;64.51;98345.02;225320;1280;22539;-78
2023/04/23 07:09:23;;;;;;;12.50;8.90;;;;;;;14.52;64.17;98340.71;225119;1279;22541;-79
2023/04/23 07:14:25;;;;;;;10.50;8.70;;;;;;;14.79;63.68;98341.91;225033;1280;22541;-79
2023/04/23 07:19:27;;;;;;;8.70;7.60;;;;;;;15.05;63.17;98338.83;224868;1280;22585;-78
2023/04/23 07:24:29;;;;;;;9.80;7.50;;;;;;;15.34;62.61;98334.90;225110;1280;22591;-78
2023/04/23 07:29:32;;;;;;;8.10;6.70;;;;;;;15.61;62.14;98333.30;225183;1280;22678;-78
2023/04/23 07:34:37;;;;;;;10.10;6.70;;;;;;;15.88;61.80;98330.33;225373;1278;24269;-79
2023/04/23 07:39:40;;;;;;;12.00;6.50;;;;;;;16.13;60.99;98323.94;225329;1275;24568;-78
2023/04/23 07:44:45;;;;;;;16.80;6.50;;;;;;;16.41;60.33;98328.36;225299;1280;22527;-79
2023/04/23 07:49:47;;;;;;;8.30;5.80;;;;;;;16.65;59.51;98324.63;225372;1280;22530;-78
2023/04/23 07:54:49;;;;;;;8.10;5.80;;;;;;;16.87;58.40;98323.87;225356;1280;22554;-77
2023/04/23 07:59:51;;;;;;;8.00;5.60;;;;;;;17.08;58.15;98317.41;225335;1279;22641;-79
2023/04/23 08:04:53;;;;;;;6.70;5.60;;;;;;;17.28;58.22;98316.42;225346;1280;25386;-78
2023/04/23 08:10:01;;;;;;;7.70;5.50;;;;;;;17.53;57.72;98313.50;225213;1280;22527;-79
2023/04/23 08:15:04;;;;;;;6.60;4.70;;;;;;;17.75;56.74;98313.21;225372;1278;22582;-79
2023/04/23 08:20:12;;;;;;;9.10;4.90;;;;;;;17.89;55.05;98307.63;225247;1280;22531;-79
2023/04/23 08:25:14;;;;;;;5.70;4.60;;;;;;;18.05;54.87;98303.98;225373;1280;22541;-79
2023/04/23 08:30:17;;;;;;;5.40;4.90;;;;;;;18.25;54.66;98297.30;225171;1279;25269;-79
2023/04/23 08:35:19;;;;;;;5.80;5.10;;;;;;;18.44;54.82;98294.48;225354;1280;22524;-79
2023/04/23 08:40:21;;;;;;;7.10;4.70;;;;;;;18.63;54.38;98289.77;225229;1274;22537;-79
2023/04/23 08:45:25;;;;;;;5.80;4.30;;;;;;;18.86;54.51;98285.20;225363;1280;22609;-79
2023/04/23 08:50:28;;;;;;;6.10;4.10;;;;;;;19.08;53.95;98283.26;225219;1280;22531;-78
2023/04/23 08:55:32;;;;;;;5.60;4.10;;;;;;;19.30;53.69;98278.29;225381;1280;22543;-78
2023/04/23 09:00:34;;;;;;;4.20;3.70;;;;;;;19.46;53.05;98273.15;225156;1280;22541;-79
2023/04/23 09:05:36;;;;;;;5.90;3.70;;;;;;;19.51;51.58;98270.27;225372;1279;24220;-79
2023/04/23 09:10:41;;;;;;;3.60;3.20;;;;;;;19.60;50.85;98265.13;225316;1280;22561;-79
2023/04/23 09:15:43;;;;;;;3.30;3.00;;;;;;;19.76;51.16;98264.05;225371;1280;22538;-79
2023/04/23 09:20:45;;;;;;;5.70;3.20;;;;;;;19.91;49.96;98259.41;225395;1280;22577;-79
2023/04/23 09:25:48;;;;;;;3.60;3.20;;;;;;;20.04;49.18;98258.45;225364;1280;23105;-79
2023/04/23 09:30:52;;;;;;;3.50;3.00;;;;;;;20.14;48.20;98255.70;225348;1280;24405;-79
2023/04/23 09:35:54;;;;;;;3.50;2.80;;;;;;;20.20;47.79;98248.63;225361;1279;22536;-79
2023/04/23 09:40:56;;;;;;;3.70;3.30;;;;;;;20.26;47.32;98247.80;225291;1280;22540;-78
2023/04/23 09:45:58;;;;;;;4.90;2.90;;;;;;;20.40;48.24;98240.93;225343;1280;22546;-79
2023/04/23 09:51:01;;;;;;;4.80;3.50;;;;;;;20.63;48.29;98238.20;225186;1280;22535;-79
2023/04/23 09:56:03;;;;;;;4.40;2.90;;;;;;;20.82;47.36;98238.28;225379;1275;25304;-79
2023/04/23 10:01:06;;;;;;;4.80;3.30;;;;;;;20.99;46.81;98235.83;225095;1280;22549;-80
2023/04/23 10:06:16;;;;;;;5.00;3.60;;;;;;;21.20;47.06;98219.05;225142;1275;23382;-79
2023/04/23 10:11:40;;;;;;;3.70;3.20;;;;;;;21.49;46.98;98218.06;225255;1278;25423;-79
2023/04/23 10:16:45;;;;;;;5.60;3.70;;;;;;;21.65;46.84;98210.07;225374;1277;22556;-79
2023/04/23 10:22:06;;;;;;;6.60;3.50;;;;;;;21.86;46.46;98200.58;225175;1280;24449;-80
2023/04/23 10:27:22;;;;;;;4.10;3.70;;;;;;;21.90;45.42;98196.05;225178;1278;207500;-79
2023/04/23 10:32:41;;;;;;;6.80;3.80;;;;;;;21.85;45.26;98188.36;225327;1273;22570;-80
2023/04/23 10:37:46;;;;;;;7.00;4.00;;;;;;;21.95;44.97;98178.55;225180;1280;25297;-80
2023/04/23 10:42:50;;;;;;;5.50;3.60;;;;;;;22.03;45.24;98174.93;225331;1271;22548;-79
2023/04/23 10:47:56;;;;;;;5.50;4.00;;;;;;;22.05;44.99;98171.73;225331;1278;22537;-81
2023/04/23 10:52:58;;;;;;;4.60;3.80;;;;;;;22.11;44.59;98168.70;225349;1275;22526;-79
2023/04/23 10:58:03;;;;;;;5.60;4.20;;;;;;;21.98;44.51;98173.48;225365;1278;22539;-79
2023/04/23 11:03:29;;;;;;;4.10;3.50;;;;;;;21.89;44.56;98166.73;225337;1278;25412;-79
2023/04/23 11:08:34;;;;;;;4.20;3.80;;;;;;;21.87;43.93;98172.23;225329;1278;22525;-79
2023/04/23 11:13:51;;;;;;;7.50;4.20;;;;;;;21.92;43.96;98168.66;225405;1278;25397;-79
2023/04/23 11:19:03;;;;;;;6.60;3.80;;;;;;;22.14;43.84;98162.48;225352;1275;22550;-79
2023/04/23 11:24:06;;;;;;;4.30;3.70;;;;;;;22.36;43.85;98160.58;225336;1278;24259;-78
2023/04/23 11:29:13;;;;;;;4.60;4.10;;;;;;;22.52;44.16;98156.66;225408;1276;22550;-80
2023/04/23 11:34:16;;;;;;;4.00;3.60;;;;;;;22.26;43.46;98156.55;225372;1270;22547;-79
2023/04/23 11:39:25;;;;;;;4.70;3.50;;;;;;;22.13;44.31;98149.64;225242;1280;22528;-79
2023/04/23 11:44:29;;;;;;;4.40;3.70;;;;;;;22.22;43.38;98145.98;225200;1280;22530;-79
2023/04/23 11:49:31;;;;;;;4.10;3.70;;;;;;;22.24;43.23;98138.65;225228;1274;22543;-79
2023/04/23 11:54:34;;;;;;;4.50;3.30;;;;;;;22.33;43.61;98135.30;225152;1280;22667;-79
2023/04/23 11:59:36;;;;;;;5.90;3.90;;;;;;;22.37;43.96;98136.77;225386;1280;22574;-80
2023/04/23 12:04:38;;;;;;;5.30;3.90;;;;;;;22.50;43.80;98128.55;225404;1278;22533;-81
2023/04/23 12:09:45;;;;;;;3.30;3.00;;;;;;;22.62;43.96;98123.83;225414;1280;22535;-79
2023/04/23 12:14:46;;;;;;;4.40;3.60;;;;;;;22.63;42.86;98121.45;225357;1276;22547;-79
2023/04/23 12:19:49;;;;;;;4.90;3.30;;;;;;;22.49;42.75;98123.13;225456;1278;23859;-79
2023/04/23 12:24:53;;;;;;;4.00;3.30;;;;;;;22.44;43.39;98117.87;225411;1280;22540;-78
2023/04/23 12:30:01;;;;;;;4.20;3.60;;;;;;;22.58;43.17;98109.20;225364;1273;22538;-79
2023/04/23 12:35:08;;;;;;;3.40;3.10;;;;;;;22.69;42.69;98109.33;225342;1280;22535;-79
2023/04/23 12:40:11;;;;;;;3.00;2.80;;;;;;;22.80;41.92;98110.72;225232;1280;22548;-78
2023/04/23 12:45:13;;;;;;;4.20;3.20;;;;;;;22.75;41.60;98106.86;225369;1276;22557;-79
2023/04/23 12:50:15;;;;;;;4.90;3.40;;;;;;;22.82;42.04;98098.85;225240;1280;22556;-79
2023/04/23 12:55:17;;;;;;;4.20;3.40;;;;;;;22.98;42.15;98099.72;225173;1273;22556;-79
2023/04/23 13:00:19;;;;;;;5.70;3.70;;;;;;;23.01;42.25;98094.98;225443;1277;22568;-78
2023/04/23 13:05:22;;;;;;;3.50;3.00;;;;;;;22.95;42.16;98086.33;225215;1278;25559;-78
2023/04/23 13:10:25;;;;;;;3.60;2.90;;;;;;;23.04;42.10;98082.84;225474;1280;22537;-79
2023/04/23 13:15:27;;;;;;;3.90;3.30;;;;;;;23.17;41.75;98078.43;225148;1280;22524;-78
2023/04/23 13:20:29;;;;;;;4.00;3.20;;;;;;;23.15;41.24;98081.52;225463;1270;22567;-81
2023/04/23 13:25:31;;;;;;;3.60;3.30;;;;;;;23.17;41.56;98071.85;225275;1280;22570;-79
2023/04/23 13:30:33;;;;;;;4.50;3.30;;;;;;;23.28;41.57;98069.59;225420;1278;22552;-79
2023/04/23 13:35:36;;;;;;;3.30;3.00;;;;;;;23.33;41.27;98063.26;225410;1278;22541;-80
2023/04/23 13:40:38;;;;;;;4.00;3.30;;;;;;;23.32;40.59;98064.67;225431;1278;22543;-80
2023/04/23 13:45:40;;;;;;;4.00;3.10;;;;;;;23.20;40.51;98061.58;225263;1263;22635;-80
2023/04/23 13:50:43;;;;;;;4.40;3.10;;;;;;;23.20;41.25;98051.60;225455;1278;22554;-79
2023/04/23 13:55:45;;;;;;;4.40;3.40;;;;;;;23.32;40.70;98048.02;225297;1264;22555;-79
2023/04/23 14:00:47;;;;;;;4.60;3.30;;;;;;;23.18;40.06;98041.01;225408;1277;22639;-79
2023/04/23 14:05:49;;;;;;;4.60;3.60;;;;;;;22.98;40.55;98036.06;225407;1277;25414;-80
2023/04/23 14:10:52;;;;;;;6.00;3.20;;;;;;;22.87;40.83;98037.37;225429;1278;22534;-79
2023/04/23 14:15:53;;;;;;;4.60;3.80;;;;;;;22.69;41.11;98040.38;225222;1280;22542;-78
2023/04/23 14:20:56;;;;;;;4.50;3.20;;;;;;;22.48;41.39;98037.41;225447;1278;22561;-79
2023/04/23 14:26:03;;;;;;;4.40;3.10;;;;;;;22.38;41.90;98036.59;225440;1277;22535;-79
2023/04/23 14:31:06;;;;;;;3.90;3.20;;;;;;;22.42;41.67;98033.73;225343;1275;22531;-79
2023/04/23 14:36:08;;;;;;;3.20;2.90;;;;;;;22.49;41.03;98032.55;225417;1273;22540;-79
2023/04/23 14:41:10;;;;;;;3.20;2.90;;;;;;;22.63;41.45;98029.93;225258;1279;22520;-79
2023/04/23 14:46:12;;;;;;;3.70;3.30;;;;;;;22.81;41.35;98030.11;225337;1280;22612;-79
2023/04/23 14:51:14;;;;;;;3.20;2.90;;;;;;;22.92;41.40;98025.58;225144;1277;22634;-79
2023/04/23 14:56:16;;;;;;;3.40;3.20;;;;;;;22.94;41.23;98022.39;225262;1280;22563;-79
2023/04/23 15:01:19;;;;;;;5.20;3.20;;;;;;;22.86;41.27;98021.38;225301;1280;22556;-79
2023/04/23 15:06:21;;;;;;;4.90;3.40;;;;;;;22.67;41.22;98018.30;225232;1280;25344;-78
2023/04/23 15:11:23;;;;;;;3.90;3.10;;;;;;;22.49;41.23;98013.12;225422;1275;22544;-79
2023/04/23 15:16:33;;;;;;;3.80;3.10;;;;;;;22.39;40.86;98013.74;225297;1280;22543;-79
2023/04/23 15:21:49;;;;;;;7.10;3.00;;;;;;;22.38;41.50;98011.71;225395;1277;22543;-78
2023/04/23 15:26:53;;;;;;;3.20;2.60;;;;;;;22.32;41.63;98010.58;225303;1277;22658;-78
2023/04/23 15:31:57;;;;;;;3.90;3.30;;;;;;;22.28;41.84;98007.25;225287;1280;22618;-79
2023/04/23 15:36:59;;;;;;;3.40;3.10;;;;;;;22.33;41.91;98007.81;225334;1280;22544;-78
2023/04/23 15:42:02;;;;;;;4.40;3.30;;;;;;;22.36;41.58;98004.61;225354;1280;22540;-78
2023/04/23 15:47:04;;;;;;;3.90;3.00;;;;;;;22.32;41.39;98007.82;225475;1280;22538;-79
2023/04/23 15:52:06;;;;;;;4.80;3.00;;;;;;;22.22;41.36;98003.71;225258;1279;22604;-79
2023/04/23 15:57:07;;;;;;;3.60;2.80;;;;;;;22.13;41.45;97996.63;225309;1278;22525;-78
2023/04/23 16:02:10;;;;;;;3.00;2.70;;;;;;;22.16;41.89;97993.96;225438;1278;22516;-78
2023/04/23 16:07:12;;;;;;;4.20;2.80;;;;;;;22.20;41.76;97993.88;225431;1278;22552;-78
2023/04/23 16:12:15;;;;;;;3.00;2.70;;;;;;;22.14;41.97;97986.48;225200;1277;22526;-78
2023/04/23 16:17:17;;;;;;;6.10;2.90;;;;;;;22.04;41.99;97982.98;225475;1274;22534;-77
2023/04/23 16:22:19;;;;;;;4.30;3.90;;;;;;;21.94;42.53;97978.95;225485;1280;22541;-78
2023/04/23 16:27:22;;;;;;;5.10;3.80;;;;;;;21.71;43.11;97977.71;225274;1278;22604;-77
2023/04/23 16:32:24;;;;;;;5.30;3.70;;;;;;;21.55;44.12;97978.69;225312;1280;22535;-78
2023/04/23 16:37:26;;;;;;;4.30;3.30;;;;;;;21.40;44.63;97978.88;225450;1278;22546;-78
2023/04/23 16:42:28;;;;;;;5.80;3.70;;;;;;;21.28;45.00;97976.41;225381;1278;22526;-78
2023/04/23 16:47:30;;;;;;;5.20;3.60;;;;;;;21.12;45.15;97970.39;225295;1271;22538;-79
2023/04/23 16:52:32;;;;;;;3.80;3.30;;;;;;;20.97;45.71;97969.00;225293;1280;25265;-79
2023/04/23 16:57:35;;;;;;;5.70;3.50;;;;;;;20.82;46.18;97970.77;225207;1280;22673;-79
2023/04/23 17:02:40;;;;;;;4.90;3.30;;;;;;;20.69;46.45;97968.73;225231;1262;22543;-79
2023/04/23 17:07:44;;;;;;;5.50;3.70;;;;;;;20.47;46.62;97967.00;225360;1278;25266;-79
2023/04/23 17:12:52;;;;;;;6.30;3.90;;;;;;;20.24;47.02;97969.05;225239;1280;22534;-80
2023/04/23 17:17:54;;;;;;;4.10;3.70;;;;;;;20.03;47.36;97967.45;225043;1280;22527;-79
2023/04/23 17:22:57;;;;;;;3.90;3.50;;;;;;;19.83;47.74;97972.86;224968;1280;22947;-81
2023/04/23 17:27:59;;;;;;;5.30;4.40;;;;;;;19.62;48.08;97969.10;225151;1278;22537;-78
2023/04/23 17:33:01;;;;;;;5.40;4.30;;;;;;;19.41;48.56;97972.77;225275;1278;22531;-81
2023/04/23 17:38:03;;;;;;;5.50;5.00;;;;;;;19.19;48.98;97974.33;225372;1278;22553;-79
2023/04/23 17:43:05;;;;;;;4.80;4.10;;;;;;;18.95;49.34;97974.34;225423;1278;22645;-78
2023/04/23 17:48:08;;;;;;;5.20;4.00;;;;;;;18.70;49.57;97974.92;225350;1280;22600;-78
2023/04/23 17:53:10;;;;;;;8.40;4.60;;;;;;;18.48;49.99;97971.67;225333;1278;22649;-79
2023/04/23 17:58:12;;;;;;;7.40;4.80;;;;;;;18.31;50.40;97977.61;225155;1280;22653;-78
2023/04/23 18:03:17;;;;;;;5.80;4.70;;;;;;;18.16;50.82;97982.89;225225;1280;22571;-78
2023/04/23 18:08:20;;;;;;;6.00;4.60;;;;;;;18.01;51.17;97988.29;225293;1280;22535;-80
2023/04/23 18:13:23;;;;;;;7.20;4.50;;;;;;;17.85;51.43;97990.89;225205;1280;22523;-79
2023/04/23 18:18:25;;;;;;;6.20;4.90;;;;;;;17.70;51.59;97995.34;225355;1280;22594;-79
2023/04/23 18:23:28;;;;;;;5.30;4.80;;;;;;;17.53;51.93;97998.30;225283;1271;22536;-79
2023/04/23 18:28:31;;;;;;;6.50;5.00;;;;;;;17.35;52.34;98000.19;225451;1278;22545;-79
2023/04/23 18:33:47;;;;;;;6.00;4.70;;;;;;;17.17;52.45;97999.98;225323;1280;22545;-78
2023/04/23 18:38:50;;;;;;;6.40;5.80;;;;;;;16.99;52.97;98000.95;225515;1278;22527;-78
2023/04/23 18:43:53;;;;;;;6.10;5.10;;;;;;;16.83;53.23;98004.80;225248;1280;22648;-78
2023/04/23 18:49:03;;;;;;;7.60;5.70;;;;;;;16.68;53.63;98003.08;225119;1280;22667;-78
2023/04/23 18:54:06;;;;;;;7.70;5.50;;;;;;;16.47;54.17;98002.29;225436;1280;22565;-77
2023/04/23 18:59:08;;;;;;;7.00;6.20;;;;;;;16.25;54.54;98000.58;225381;1279;22531;-79
2023/04/23 19:04:10;;;;;;;25.40;19.80;;;;;;;16.02;55.20;98003.73;225448;1278;22523;-79
2023/04/23 19:09:12;;;;;;;9.80;7.40;;;;;;;15.82;55.87;98004.05;225327;1278;22523;-78
2023/04/23 19:14:17;;;;;;;10.10;8.00;;;;;;;15.69;56.32;98011.23;225453;1280;23028;-78
2023/04/23 19:19:19;;;;;;;9.10;7.70;;;;;;;15.56;56.55;98008.68;225374;1280;22540;-79
2023/04/23 19:24:21;;;;;;;9.20;8.30;;;;;;;15.39;56.90;98009.84;225441;1279;22543;-77
2023/04/23 19:29:23;;;;;;;10.40;9.10;;;;;;;15.25;57.40;98015.52;225419;1280;22531;-77
2023/04/23 19:34:26;;;;;;;12.60;9.70;;;;;;;15.10;57.61;98011.89;225383;1280;22537;-79
2023/04/23 19:39:28;;;;;;;10.90;9.10;;;;;;;14.94;57.97;98015.37;225464;1278;25316;-80
2023/04/23 19:44:30;;;;;;;13.70;10.60;;;;;;;14.77;58.59;98012.27;225423;1279;22653;-79
2023/04/23 19:49:32;;;;;;;12.80;10.00;;;;;;;14.60;58.72;98008.33;225477;1280;22557;-79
2023/04/23 19:54:34;;;;;;;14.00;10.20;;;;;;;14.43;59.40;98006.73;225330;1280;22540;-78
2023/04/23 19:59:36;;;;;;;15.50;10.80;;;;;;;14.27;59.53;98001.60;225408;1278;23527;-79
2023/04/23 20:04:38;;;;;;;14.10;10.20;;;;;;;14.10;60.09;98003.38;225443;1280;25434;-78
2023/04/23 20:09:41;;;;;;;14.60;10.70;;;;;;;13.95;60.37;97999.02;225319;1280;24427;-79
2023/04/23 20:14:43;;;;;;;14.90;10.90;;;;;;;13.80;60.81;97998.06;225434;1280;22537;-78
2023/04/23 20:19:45;;;;;;;14.00;10.40;;;;;;;13.65;61.15;97999.71;225499;1280;24963;-78
2023/04/23 20:24:47;;;;;;;15.90;11.60;;;;;;;13.51;61.76;97997.02;225381;1280;22550;-77
2023/04/23 20:29:50;;;;;;;13.40;10.50;;;;;;;13.39;62.23;97990.33;225476;1280;22535;-77
2023/04/23 20:34:52;;;;;;;17.50;11.40;;;;;;;13.31;62.95;97996.08;225249;1280;22521;-78
2023/04/23 20:39:55;;;;;;;17.30;12.50;;;;;;;13.22;63.16;97988.06;225270;1279;22533;-78
2023/04/23 20:44:57;;;;;;;14.90;12.00;;;;;;;13.15;63.55;97992.67;225426;1279;24273;-77
2023/04/23 20:49:59;;;;;;;16.40;12.90;;;;;;;13.11;63.89;97987.31;225321;1279;22536;-77
2023/04/23 20:55:02;;;;;;;16.80;13.00;;;;;;;13.07;64.31;97991.61;225289;1280;22526;-78
2023/04/23 21:00:10;;;;;;;20.30;13.20;;;;;;;13.00;64.62;97994.77;225276;1279;25396;-77
2023/04/23 21:05:12;;;;;;;20.80;15.90;;;;;;;12.90;64.69;97988.11;225310;1280;22538;-78
2023/04/23 21:10:20;;;;;;;22.50;16.70;;;;;;;12.80;64.92;97984.07;225352;1280;22533;-77
2023/04/23 21:15:43;;;;;;;28.70;19.40;;;;;;;12.69;65.17;97977.70;225300;1265;22568;-79
2023/04/23 21:20:45;;;;;;;22.50;16.60;;;;;;;12.61;65.44;97975.60;225400;1280;22619;-78
2023/04/23 21:25:47;;;;;;;22.50;16.10;;;;;;;12.52;65.87;97971.70;225326;1280;22531;-77
2023/04/23 21:30:51;;;;;;;19.00;15.80;;;;;;;12.44;66.40;97969.27;225304;1280;22521;-77
2023/04/23 21:35:53;;;;;;;20.90;15.60;;;;;;;12.31;66.54;97965.34;225342;1280;22531;-78
2023/04/23 21:40:58;;;;;;;22.40;17.90;;;;;;;12.17;66.66;97959.66;225507;1280;22772;-78
2023/04/23 21:46:00;;;;;;;26.10;20.30;;;;;;;12.03;66.97;97953.23;225488;1280;22547;-77
2023/04/23 21:51:24;;;;;;;26.70;20.10;;;;;;;11.90;67.27;97952.15;225373;1280;22900;-76
2023/04/23 21:56:26;;;;;;;36.40;25.20;;;;;;;11.81;67.82;97952.08;225323;1279;22542;-78
2023/04/23 22:01:27;;;;;;;29.20;23.40;;;;;;;11.74;67.81;97948.23;225302;1280;22658;-76
2023/04/23 22:06:30;;;;;;;36.90;25.30;;;;;;;11.69;68.04;97945.95;225379;1279;22967;-78
2023/04/23 22:11:33;;;;;;;31.80;23.60;;;;;;;11.65;68.22;97939.79;225197;1280;22542;-78
2023/04/23 22:16:35;;;;;;;29.40;21.20;;;;;;;11.63;68.32;97936.23;225337;1281;25277;-77
2023/04/23 22:21:38;;;;;;;33.10;22.30;;;;;;;11.61;68.79;97936.79;225395;1280;25329;-76
2023/04/23 22:26:40;;;;;;;33.90;23.60;;;;;;;11.60;68.66;97934.64;225103;1279;235979;-78
2023/04/23 22:31:41;;;;;;;32.50;24.00;;;;;;;11.60;69.01;97933.84;225477;1280;23009;-78
2023/04/23 22:36:44;;;;;;;33.10;24.10;;;;;;;11.59;69.04;97930.09;225420;1280;22526;-77
2023/04/23 22:41:46;;;;;;;33.40;22.30;;;;;;;11.58;69.02;97925.67;225286;1280;22563;-77
2023/04/23 22:46:49;;;;;;;32.70;23.70;;;;;;;11.55;69.23;97927.95;225444;1280;22566;-78
2023/04/23 22:51:51;;;;;;;32.90;24.10;;;;;;;11.52;69.25;97921.58;225281;1279;22532;-77
2023/04/23 22:56:53;;;;;;;34.20;22.40;;;;;;;11.47;69.46;97917.13;225261;1281;22534;-76
2023/04/23 23:01:55;;;;;;;30.70;22.40;;;;;;;11.44;69.63;97911.89;225240;1280;22536;-77
2023/04/23 23:06:57;;;;;;;31.70;24.90;;;;;;;11.40;69.91;97909.55;225365;1279;23165;-78
2023/04/23 23:12:19;;;;;;;29.10;21.20;;;;;;;11.35;70.15;97898.26;225374;1281;22545;-77
2023/04/23 23:17:23;;;;;;;28.80;20.30;;;;;;;11.34;70.37;97892.61;225378;1281;22541;-77
2023/04/23 23:22:25;;;;;;;27.20;19.70;;;;;;;11.36;70.62;97890.93;225417;1270;23347;-76